Cap Bonavista — A8CH8 — position and weather

sailwx.info

Track history (hours):
 
Tides and Currents Weather Stations Pressure Air Temp Water Temp Dewpoint Dewpoint Depression Visibility Wind Speed Wind Dir Waves Ship Positions

Cap Bonavista

Last reported at 2015-Aug-22 14:21 UTC. Time now 2015-Aug-30 19:53 UTC.
Position N 09°20' W 013°45'.
Warning: this ship's position is 8 days out of date.

Length 200 m; beam 29.8 m; draft 11.6 m.

Type: Cargo ship. MMSI: 636090647.

Date/timePositionNaut miles runAvg speedWind from/ knotsBaromVisibWave heightAir tempDewpointWater temp
2015-Aug-22 14:21N 09°20' W 013°45'810.0
2015-Aug-22 13:33N 09°27' W 013°43'3 3.0
2015-Aug-22 12:31N 09°31' W 013°43'0 0.0
2015-Aug-22 11:31N 09°31' W 013°43'0 0.0
2015-Aug-22 09:25N 09°31' W 013°43'0 0.0
2015-Aug-22 08:28N 09°31' W 013°43'0 0.0
2015-Aug-22 07:22N 09°31' W 013°43'0 0.0
2015-Aug-22 05:25N 09°31' W 013°43'0 0.0
2015-Aug-22 04:16N 09°31' W 013°43'0 0.0
2015-Aug-22 03:31N 09°31' W 013°43'0 0.0
2015-Aug-22 02:28N 09°31' W 013°43'0 0.0
2015-Aug-22 01:31N 09°31' W 013°43'0 0.0
2015-Aug-22 00:31N 09°31' W 013°43'0 0.0
2015-Aug-21 23:31N 09°31' W 013°43'0 0.0
2015-Aug-21 22:31N 09°31' W 013°43'0 0.0
2015-Aug-21 21:31N 09°31' W 013°43'0 0.0
2015-Aug-21 20:31N 09°31' W 013°43'0 0.0
2015-Aug-21 19:31N 09°31' W 013°43'0 0.0
2015-Aug-21 18:31N 09°31' W 013°43'0 0.0
2015-Aug-21 17:31N 09°31' W 013°43'0 0.0
2015-Aug-21 16:31N 09°31' W 013°43'0 0.0
2015-Aug-21 15:31N 09°31' W 013°43'0 0.0
2015-Aug-21 14:31N 09°31' W 013°43'0 0.0
2015-Aug-21 13:22N 09°31' W 013°43'0 0.0
2015-Aug-21 12:31N 09°31' W 013°43'0 0.0
2015-Aug-21 11:31N 09°31' W 013°43'1 1.1
2015-Aug-21 10:34N 09°29' W 013°44'5 5.2
2015-Aug-21 09:34N 09°24' W 013°45'1211.7
2015-Aug-21 08:33N 09°18' W 013°55'8 1.5
2015-Aug-21 03:05N 09°14' W 014°02'0 0.1
2015-Aug-21 02:32N 09°14' W 014°02'1 0.2
2015-Aug-20 21:12N 09°15' W 014°02'2 0.1
2015-Aug-19 15:31N 09°15' W 014°04'  
Track history (hours):
 
Tides and Currents Weather Stations Pressure Air Temp Water Temp Dewpoint Dewpoint Depression Visibility Wind Speed Wind Dir Waves Ship Positions

Cap Bonavista

Last reported at 2015-Aug-22 14:21 UTC. Time now 2015-Aug-30 19:53 UTC.
Position N 09°20' W 013°45'.
Warning: this ship's position is 8 days out of date.

Length 200 m; beam 29.8 m; draft 11.6 m.

Type: Cargo ship. MMSI: 636090647.

Date/timePositionNaut miles runAvg speedWind from/ knotsBaromVisibWave heightAir tempDewpointWater temp
2015-Aug-22 14:21N 09°20' W 013°45'810.0
2015-Aug-22 13:33N 09°27' W 013°43'3 3.0
2015-Aug-22 12:31N 09°31' W 013°43'0 0.0
2015-Aug-22 11:31N 09°31' W 013°43'0 0.0
2015-Aug-22 09:25N 09°31' W 013°43'0 0.0
2015-Aug-22 08:28N 09°31' W 013°43'0 0.0
2015-Aug-22 07:22N 09°31' W 013°43'0 0.0
2015-Aug-22 05:25N 09°31' W 013°43'0 0.0
2015-Aug-22 04:16N 09°31' W 013°43'0 0.0
2015-Aug-22 03:31N 09°31' W 013°43'0 0.0
2015-Aug-22 02:28N 09°31' W 013°43'0 0.0
2015-Aug-22 01:31N 09°31' W 013°43'0 0.0
2015-Aug-22 00:31N 09°31' W 013°43'0 0.0
2015-Aug-21 23:31N 09°31' W 013°43'0 0.0
2015-Aug-21 22:31N 09°31' W 013°43'0 0.0
2015-Aug-21 21:31N 09°31' W 013°43'0 0.0
2015-Aug-21 20:31N 09°31' W 013°43'0 0.0
2015-Aug-21 19:31N 09°31' W 013°43'0 0.0
2015-Aug-21 18:31N 09°31' W 013°43'0 0.0
2015-Aug-21 17:31N 09°31' W 013°43'0 0.0
2015-Aug-21 16:31N 09°31' W 013°43'0 0.0
2015-Aug-21 15:31N 09°31' W 013°43'0 0.0
2015-Aug-21 14:31N 09°31' W 013°43'0 0.0
2015-Aug-21 13:22N 09°31' W 013°43'0 0.0
2015-Aug-21 12:31N 09°31' W 013°43'0 0.0
2015-Aug-21 11:31N 09°31' W 013°43'1 1.1
2015-Aug-21 10:34N 09°29' W 013°44'5 5.2
2015-Aug-21 09:34N 09°24' W 013°45'1211.7
2015-Aug-21 08:33N 09°18' W 013°55'8 1.5
2015-Aug-21 03:05N 09°14' W 014°02'0 0.1
2015-Aug-21 02:32N 09°14' W 014°02'1 0.2
2015-Aug-20 21:12N 09°15' W 014°02'2 0.1
2015-Aug-19 15:31N 09°15' W 014°04'  

Dump ship's entire track history